Time,TemperatureF,DewpointF,PressureIn,WindDirection,WindDirectionDegrees,WindSpeedMPH,WindSpeedGustMPH,Humidity,HourlyPrecipIn,Conditions,Clouds,dailyrainin,SoftwareType,DateUTC
2013-08-11 00:01:00,68.2,65.8,30.15,NNE,22,0.0,0.0,92,0.00,CLR,,0.00,WeatherDisplay:10.37,2013-08-11 04:01:00,
2013-08-11 00:06:00,68.2,65.8,30.15,NNE,22,0.0,0.0,92,0.00,CLR,,0.00,WeatherDisplay:10.37,2013-08-11 04:06:00,
2013-08-11 00:11:00,68.2,65.8,30.15,NNE,22,0.0,0.0,92,0.00,CLR,,0.00,WeatherDisplay:10.37,2013-08-11 04:11:00,
2013-08-11 00:16:00,68.2,65.8,30.16,NNE,22,0.0,0.0,92,0.00,CLR,,0.00,WeatherDisplay:10.37,2013-08-11 04:16:00,
2013-08-11 00:21:00,68.2,65.8,30.16,NNE,22,0.0,0.0,92,0.00,CLR,,0.00,WeatherDisplay:10.37,2013-08-11 04:21:00,
2013-08-11 00:26:00,68.2,65.8,30.16,NNE,22,0.0,0.0,92,0.00,CLR,,0.00,WeatherDisplay:10.37,2013-08-11 04:26:00,
2013-08-11 00:31:00,68.2,65.8,30.16,NNE,22,0.0,0.0,92,0.00,CLR,,0.00,WeatherDisplay:10.37,2013-08-11 04:31:00,
2013-08-11 00:36:00,67.8,65.4,30.16,NNE,22,0.0,0.0,92,0.00,CLR,,0.00,WeatherDisplay:10.37,2013-08-11 04:36:00,
2013-08-11 00:41:00,67.6,65.2,30.16,NNE,22,0.0,0.0,92,0.00,CLR,,0.00,WeatherDisplay:10.37,2013-08-11 04:41:00,
2013-08-11 00:46:00,67.3,64.9,30.16,NNE,22,0.0,0.0,92,0.00,CLR,,0.00,WeatherDisplay:10.37,2013-08-11 04:46:00,
2013-08-11 00:51:00,67.1,64.7,30.16,NNE,22,0.0,0.0,92,0.00,CLR,,0.00,WeatherDisplay:10.37,2013-08-11 04:51:00,
2013-08-11 00:56:00,66.9,64.5,30.15,NNE,22,0.0,0.0,92,0.00,CLR,,0.00,WeatherDisplay:10.37,2013-08-11 04:56:00,
2013-08-11 01:01:00,66.9,64.5,30.15,NNE,22,0.0,0.0,92,0.00,CLR,,0.00,WeatherDisplay:10.37,2013-08-11 05:01:00,
2013-08-11 01:06:00,66.9,64.8,30.15,NNE,22,0.0,0.0,93,0.00,CLR,,0.00,WeatherDisplay:10.37,2013-08-11 05:06:00,
2013-08-11 01:11:00,66.9,64.8,30.15,NNE,22,0.0,0.0,93,0.00,CLR,,0.00,WeatherDisplay:10.37,2013-08-11 05:11:00,
2013-08-11 01:17:00,66.9,64.8,30.15,NNE,22,0.0,0.0,93,0.00,CLR,,0.00,WeatherDisplay:10.37,2013-08-11 05:17:00,
2013-08-11 01:22:00,67.1,65.0,30.15,NNE,22,0.0,0.0,93,0.00,CLR,,0.00,WeatherDisplay:10.37,2013-08-11 05:22:00,
2013-08-11 01:27:00,67.3,65.2,30.15,NNE,22,0.0,0.0,93,0.00,CLR,,0.00,WeatherDisplay:10.37,2013-08-11 05:27:00,
2013-08-11 01:32:00,67.3,65.2,30.16,NNE,22,0.0,0.0,93,0.00,CLR,,0.00,WeatherDisplay:10.37,2013-08-11 05:32:00,
2013-08-11 01:37:00,67.1,65.0,30.16,NNE,22,0.0,0.0,93,0.00,CLR,,0.00,WeatherDisplay:10.37,2013-08-11 05:37:00,
2013-08-11 01:43:00,67.3,65.2,30.15,NNE,22,0.0,0.0,93,0.00,CLR,,0.00,WeatherDisplay:10.37,2013-08-11 05:43:00,
2013-08-11 01:49:00,67.3,65.2,30.16,NNE,22,0.0,0.0,93,0.00,CLR,,0.00,WeatherDisplay:10.37,2013-08-11 05:49:00,
2013-08-11 01:54:00,67.3,65.2,30.16,NNE,22,0.0,0.0,93,0.00,CLR,,0.00,WeatherDisplay:10.37,2013-08-11 05:54:00,
2013-08-11 01:59:00,67.3,65.2,30.15,NNE,22,0.0,0.0,93,0.00,CLR,,0.00,WeatherDisplay:10.37,2013-08-11 05:59:00,
2013-08-11 02:04:00,67.3,65.2,30.15,NNE,22,0.0,0.0,93,0.00,CLR,,0.00,WeatherDisplay:10.37,2013-08-11 06:04:00,
2013-08-11 02:10:00,67.3,65.2,30.15,NNE,22,0.0,0.0,93,0.00,CLR,,0.00,WeatherDisplay:10.37,2013-08-11 06:10:00,
2013-08-11 02:15:00,67.3,65.5,30.15,NNE,22,0.0,0.0,94,0.00,CLR,,0.00,WeatherDisplay:10.37,2013-08-11 06:15:00,
2013-08-11 02:20:00,67.3,65.5,30.15,NNE,22,0.0,0.0,94,0.00,CLR,,0.00,WeatherDisplay:10.37,2013-08-11 06:20:00,
2013-08-11 02:25:00,67.3,65.5,30.15,NNE,22,0.0,0.0,94,0.00,CLR,,0.00,WeatherDisplay:10.37,2013-08-11 06:25:00,
2013-08-11 02:30:00,67.3,65.5,30.15,NNE,22,0.0,0.0,94,0.00,CLR,,0.00,WeatherDisplay:10.37,2013-08-11 06:30:00,
2013-08-11 02:35:00,67.3,65.5,30.15,NNE,22,0.0,0.0,94,0.00,CLR,,0.00,WeatherDisplay:10.37,2013-08-11 06:35:00,
2013-08-11 02:40:00,67.3,65.5,30.15,NNE,22,0.0,0.0,94,0.00,CLR,,0.00,WeatherDisplay:10.37,2013-08-11 06:40:00,
2013-08-11 02:45:00,67.3,65.5,30.15,NNE,22,0.0,0.0,94,0.00,CLR,,0.00,WeatherDisplay:10.37,2013-08-11 06:45:00,
2013-08-11 02:50:00,67.3,65.5,30.15,NNE,22,0.0,0.0,94,0.00,CLR,,0.00,WeatherDisplay:10.37,2013-08-11 06:50:00,
2013-08-11 02:55:00,67.3,65.5,30.15,NNE,22,0.0,0.0,94,0.00,CLR,,0.00,WeatherDisplay:10.37,2013-08-11 06:55:00,
2013-08-11 03:00:00,67.3,65.5,30.15,NNE,22,0.0,0.0,94,0.00,CLR,,0.00,WeatherDisplay:10.37,2013-08-11 07:00:00,
2013-08-11 03:05:00,67.3,65.5,30.15,NNE,22,0.0,0.0,94,0.00,CLR,,0.00,WeatherDisplay:10.37,2013-08-11 07:05:00,
2013-08-11 03:10:00,67.3,65.5,30.15,NNE,22,0.0,0.0,94,0.00,CLR,,0.00,WeatherDisplay:10.37,2013-08-11 07:10:00,
2013-08-11 03:15:00,67.3,65.5,30.15,NNE,22,0.0,0.0,94,0.00,CLR,,0.00,WeatherDisplay:10.37,2013-08-11 07:15:00,
2013-08-11 03:20:00,67.3,65.5,30.15,NNE,22,0.0,0.0,94,0.00,CLR,,0.00,WeatherDisplay:10.37,2013-08-11 07:20:00,
2013-08-11 03:26:00,67.5,65.7,30.15,NNE,22,0.0,0.0,94,0.00,CLR,,0.00,WeatherDisplay:10.37,2013-08-11 07:26:00,
2013-08-11 03:31:00,67.5,65.7,30.15,NNE,22,0.0,0.0,94,0.00,CLR,,0.00,WeatherDisplay:10.37,2013-08-11 07:31:00,
2013-08-11 03:36:00,67.6,65.9,30.15,NNE,22,0.0,0.0,94,0.00,CLR,,0.00,WeatherDisplay:10.37,2013-08-11 07:36:00,
2013-08-11 03:41:00,67.6,65.9,30.15,NNE,22,0.0,0.0,94,0.00,CLR,,0.00,WeatherDisplay:10.37,2013-08-11 07:41:00,
2013-08-11 03:46:00,67.5,65.7,30.15,NNE,22,0.0,0.0,94,0.00,CLR,,0.00,WeatherDisplay:10.37,2013-08-11 07:46:00,
2013-08-11 03:51:00,67.3,65.5,30.15,NNE,22,0.0,0.0,94,0.00,CLR,,0.00,WeatherDisplay:10.37,2013-08-11 07:51:00,
2013-08-11 03:56:00,67.3,65.5,30.15,NNE,22,0.0,0.0,94,0.00,CLR,,0.00,WeatherDisplay:10.37,2013-08-11 07:56:00,
2013-08-11 04:01:00,67.5,65.7,30.15,NNE,22,0.0,0.0,94,0.00,CLR,,0.00,WeatherDisplay:10.37,2013-08-11 08:01:00,
2013-08-11 04:07:00,67.6,65.9,30.16,NNE,22,0.0,0.0,94,0.00,CLR,,0.00,WeatherDisplay:10.37,2013-08-11 08:07:00,
2013-08-11 04:12:00,67.6,65.9,30.15,NNE,22,0.0,0.0,94,0.00,CLR,,0.00,WeatherDisplay:10.37,2013-08-11 08:12:00,
2013-08-11 04:17:00,67.6,65.9,30.16,NNE,22,0.0,0.0,94,0.00,CLR,,0.00,WeatherDisplay:10.37,2013-08-11 08:17:00,
2013-08-11 04:22:00,67.6,65.9,30.16,NNE,22,0.0,0.0,94,0.00,CLR,,0.00,WeatherDisplay:10.37,2013-08-11 08:22:00,
2013-08-11 04:27:00,67.5,65.7,30.16,NNE,22,0.0,0.0,94,0.00,CLR,,0.00,WeatherDisplay:10.37,2013-08-11 08:27:00,
2013-08-11 04:32:00,67.6,65.9,30.15,NNE,22,0.0,0.0,94,0.00,CLR,,0.00,WeatherDisplay:10.37,2013-08-11 08:32:00,
2013-08-11 04:37:00,67.6,65.9,30.16,NNE,22,0.0,0.0,94,0.00,CLR,,0.00,WeatherDisplay:10.37,2013-08-11 08:37:00,
2013-08-11 04:42:00,67.6,65.9,30.15,NNE,22,0.0,0.0,94,0.00,CLR,,0.00,WeatherDisplay:10.37,2013-08-11 08:42:00,
2013-08-11 04:47:00,67.6,65.9,30.15,NNE,22,0.0,0.0,94,0.00,CLR,,0.00,WeatherDisplay:10.37,2013-08-11 08:47:00,
2013-08-11 04:53:00,67.6,65.9,30.15,NNE,22,0.0,0.0,94,0.00,CLR,,0.00,WeatherDisplay:10.37,2013-08-11 08:53:00,
2013-08-11 04:58:00,67.6,65.9,30.15,NNE,22,0.0,0.0,94,0.00,CLR,,0.00,WeatherDisplay:10.37,2013-08-11 08:58:00,
2013-08-11 05:04:00,67.6,65.9,30.15,NNE,22,0.0,0.0,94,0.00,CLR,,0.00,WeatherDisplay:10.37,2013-08-11 09:04:00,
2013-08-11 05:09:00,67.6,65.9,30.15,NNE,22,0.0,0.0,94,0.00,CLR,,0.00,WeatherDisplay:10.37,2013-08-11 09:09:00,
2013-08-11 05:14:00,67.6,65.9,30.15,NNE,22,0.0,0.0,94,0.00,CLR,,0.00,WeatherDisplay:10.37,2013-08-11 09:14:00,
2013-08-11 05:20:00,67.8,66.0,30.15,NNE,22,0.0,0.0,94,0.00,CLR,,0.00,WeatherDisplay:10.37,2013-08-11 09:20:00,
2013-08-11 05:25:00,67.8,66.0,30.15,NNE,22,0.0,0.0,94,0.00,CLR,,0.00,WeatherDisplay:10.37,2013-08-11 09:25:00,
2013-08-11 05:30:00,67.8,66.0,30.15,NNE,22,0.0,0.0,94,0.00,CLR,,0.00,WeatherDisplay:10.37,2013-08-11 09:30:00,
2013-08-11 05:35:00,67.8,66.0,30.15,NNE,22,0.0,0.0,94,0.00,CLR,,0.00,WeatherDisplay:10.37,2013-08-11 09:35:00,
2013-08-11 05:40:00,67.8,66.0,30.15,NNE,22,0.0,0.0,94,0.00,CLR,,0.00,WeatherDisplay:10.37,2013-08-11 09:40:00,
2013-08-11 05:45:00,67.8,66.0,30.15,NNE,22,0.0,0.0,94,0.00,CLR,,0.00,WeatherDisplay:10.37,2013-08-11 09:45:00,
2013-08-11 05:50:00,67.8,66.0,30.15,NNE,22,0.0,0.0,94,0.00,CLR,,0.00,WeatherDisplay:10.37,2013-08-11 09:50:00,
2013-08-11 05:55:00,67.8,66.0,30.15,NNE,22,0.0,0.0,94,0.00,CLR,,0.00,WeatherDisplay:10.37,2013-08-11 09:55:00,
2013-08-11 06:00:00,68.0,66.2,30.15,NNE,22,0.0,0.0,94,0.00,CLR,,0.00,WeatherDisplay:10.37,2013-08-11 10:00:00,
2013-08-11 06:05:00,68.2,66.4,30.16,NNE,22,0.0,0.0,94,0.00,CLR,,0.00,WeatherDisplay:10.37,2013-08-11 10:05:00,
2013-08-11 06:10:00,68.1,66.3,30.16,NNE,22,0.0,0.0,94,0.00,CLR,,0.00,WeatherDisplay:10.37,2013-08-11 10:10:00,
2013-08-11 06:15:00,68.0,66.2,30.16,NNE,22,0.0,0.0,94,0.00,CLR,,0.00,WeatherDisplay:10.37,2013-08-11 10:15:00,
2013-08-11 06:20:00,68.0,66.2,30.16,NNE,22,0.0,0.0,94,0.00,CLR,,0.00,WeatherDisplay:10.37,2013-08-11 10:20:00,
2013-08-11 06:25:00,68.0,66.2,30.16,NNE,22,0.0,0.0,94,0.00,CLR,,0.00,WeatherDisplay:10.37,2013-08-11 10:25:00,
2013-08-11 06:30:00,67.8,66.0,30.16,NNE,22,0.0,0.0,94,0.00,CLR,,0.00,WeatherDisplay:10.37,2013-08-11 10:30:00,
2013-08-11 06:35:00,67.8,66.0,30.17,NNE,22,0.0,0.0,94,0.00,CLR,,0.00,WeatherDisplay:10.37,2013-08-11 10:35:00,
2013-08-11 06:40:00,68.0,66.2,30.17,NNE,22,0.0,0.0,94,0.00,CLR,,0.00,WeatherDisplay:10.37,2013-08-11 10:40:00,
2013-08-11 06:45:00,67.8,66.0,30.17,NNE,22,0.0,0.0,94,0.00,CLR,,0.00,WeatherDisplay:10.37,2013-08-11 10:45:00,
2013-08-11 06:50:00,67.8,66.0,30.17,NNE,22,0.0,0.0,94,0.00,CLR,,0.00,WeatherDisplay:10.37,2013-08-11 10:50:00,
2013-08-11 06:55:00,67.8,66.0,30.17,NNE,22,0.0,0.0,94,0.00,CLR,,0.00,WeatherDisplay:10.37,2013-08-11 10:55:00,
2013-08-11 07:00:00,67.8,66.0,30.17,NNE,22,0.0,0.0,94,0.00,CLR,,0.00,WeatherDisplay:10.37,2013-08-11 11:00:00,
2013-08-11 07:05:00,67.8,66.0,30.17,NNE,22,0.0,0.0,94,0.00,CLR,,0.00,WeatherDisplay:10.37,2013-08-11 11:05:00,
2013-08-11 07:10:00,67.8,66.0,30.17,NNE,22,0.0,0.0,94,0.00,CLR,,0.00,WeatherDisplay:10.37,2013-08-11 11:10:00,
2013-08-11 07:15:00,67.8,66.0,30.17,NNE,22,0.0,0.0,94,0.00,CLR,,0.00,WeatherDisplay:10.37,2013-08-11 11:15:00,
2013-08-11 07:20:00,67.8,66.0,30.16,NNE,22,0.0,0.0,94,0.00,CLR,,0.00,WeatherDisplay:10.37,2013-08-11 11:20:00,
2013-08-11 07:25:00,68.2,66.4,30.17,NNE,22,0.0,0.0,94,0.00,CLR,,0.00,WeatherDisplay:10.37,2013-08-11 11:25:00,
2013-08-11 07:31:00,68.2,66.4,30.16,NNE,22,0.0,0.0,94,0.00,CLR,,0.00,WeatherDisplay:10.37,2013-08-11 11:31:00,
2013-08-11 07:36:00,68.2,66.4,30.17,NNE,22,0.0,0.0,94,0.00,CLR,,0.00,WeatherDisplay:10.37,2013-08-11 11:36:00,
2013-08-11 07:41:00,68.2,66.4,30.17,NNE,22,0.0,0.0,94,0.00,CLR,,0.00,WeatherDisplay:10.37,2013-08-11 11:41:00,
2013-08-11 07:46:00,68.2,66.4,30.17,NNE,22,0.0,0.0,94,0.00,CLR,,0.00,WeatherDisplay:10.37,2013-08-11 11:46:00,
2013-08-11 07:51:00,68.4,66.6,30.17,NNE,22,0.0,0.0,94,0.00,CLR,,0.00,WeatherDisplay:10.37,2013-08-11 11:51:00,
2013-08-11 07:56:00,68.2,66.4,30.17,NNE,22,0.0,0.0,94,0.00,CLR,,0.00,WeatherDisplay:10.37,2013-08-11 11:56:00,
2013-08-11 08:02:00,68.4,66.9,30.17,NNE,22,0.0,0.0,95,0.00,CLR,,0.00,WeatherDisplay:10.37,2013-08-11 12:02:00,
2013-08-11 08:07:00,68.4,66.6,30.17,NNE,22,0.0,0.0,94,0.00,CLR,,0.00,WeatherDisplay:10.37,2013-08-11 12:07:00,
2013-08-11 08:12:00,68.4,66.9,30.17,NNE,22,0.0,0.0,95,0.00,CLR,,0.00,WeatherDisplay:10.37,2013-08-11 12:12:00,
2013-08-11 08:17:00,68.4,66.9,30.17,NNE,22,0.0,0.0,95,0.00,CLR,,0.00,WeatherDisplay:10.37,2013-08-11 12:17:00,
2013-08-11 08:23:00,68.4,66.9,30.17,NNE,22,0.0,0.0,95,0.00,CLR,,0.00,WeatherDisplay:10.37,2013-08-11 12:23:00,
2013-08-11 08:28:00,68.5,67.1,30.17,NNE,22,0.0,0.0,95,0.00,CLR,,0.00,WeatherDisplay:10.37,2013-08-11 12:28:00,
2013-08-11 08:33:00,68.5,67.1,30.17,NNE,22,0.0,0.0,95,0.00,CLR,,0.00,WeatherDisplay:10.37,2013-08-11 12:33:00,
2013-08-11 08:39:00,68.7,67.2,30.17,NNE,22,0.0,0.0,95,0.00,CLR,,0.00,WeatherDisplay:10.37,2013-08-11 12:39:00,
2013-08-11 08:44:00,68.7,67.2,30.17,NNE,22,0.0,0.0,95,0.00,CLR,,0.00,WeatherDisplay:10.37,2013-08-11 12:44:00,
2013-08-11 08:49:00,68.9,67.4,30.17,NNE,22,0.0,0.0,95,0.00,CLR,,0.00,WeatherDisplay:10.37,2013-08-11 12:49:00,
2013-08-11 08:54:00,68.9,67.4,30.17,NNE,22,0.0,0.0,95,0.00,CLR,,0.00,WeatherDisplay:10.37,2013-08-11 12:54:00,
2013-08-11 08:59:00,69.1,67.6,30.18,NNE,22,0.0,0.0,95,0.00,CLR,,0.00,WeatherDisplay:10.37,2013-08-11 12:59:00,
2013-08-11 09:05:00,68.9,67.4,30.18,NNE,22,0.0,0.0,95,0.00,CLR,,0.00,WeatherDisplay:10.37,2013-08-11 13:05:00,
2013-08-11 09:10:00,68.7,67.2,30.19,NNE,22,0.0,0.0,95,0.00,CLR,,0.00,WeatherDisplay:10.37,2013-08-11 13:10:00,
2013-08-11 09:15:00,68.7,67.2,30.18,NNE,22,0.0,0.0,95,0.00,CLR,,0.00,WeatherDisplay:10.37,2013-08-11 13:15:00,
2013-08-11 09:20:00,68.7,67.2,30.18,NNE,22,0.0,0.0,95,0.00,CLR,,0.00,WeatherDisplay:10.37,2013-08-11 13:20:00,
2013-08-11 09:25:00,68.7,67.2,30.18,NNE,22,0.0,0.0,95,0.00,CLR,,0.00,WeatherDisplay:10.37,2013-08-11 13:25:00,
2013-08-11 09:30:00,68.7,67.2,30.18,NNE,22,0.0,0.0,95,0.00,CLR,,0.00,WeatherDisplay:10.37,2013-08-11 13:30:00,
2013-08-11 09:35:00,68.7,67.2,30.18,NNE,22,0.0,0.0,95,0.00,CLR,,0.00,WeatherDisplay:10.37,2013-08-11 13:35:00,
2013-08-11 09:40:00,68.7,67.2,30.19,NNE,22,0.0,0.0,95,0.00,CLR,,0.00,WeatherDisplay:10.37,2013-08-11 13:40:00,
2013-08-11 09:45:00,68.7,67.2,30.19,NNE,22,0.0,0.0,95,0.00,CLR,,0.00,WeatherDisplay:10.37,2013-08-11 13:45:00,
2013-08-11 09:50:00,68.7,67.2,30.19,NNE,22,0.0,0.0,95,0.00,CLR,,0.00,WeatherDisplay:10.37,2013-08-11 13:50:00,
2013-08-11 09:56:00,68.7,67.2,30.18,NNE,22,0.0,0.0,95,0.00,CLR,,0.00,WeatherDisplay:10.37,2013-08-11 13:56:00,
2013-08-11 10:01:00,68.7,67.2,30.18,NNE,22,0.0,0.0,95,0.00,CLR,,0.00,WeatherDisplay:10.37,2013-08-11 14:01:00,
2013-08-11 10:06:00,68.7,67.2,30.18,NNE,22,0.0,0.0,95,0.00,CLR,,0.00,WeatherDisplay:10.37,2013-08-11 14:06:00,
2013-08-11 10:11:00,68.7,67.2,30.18,NNE,22,0.0,0.0,95,0.00,CLR,,0.00,WeatherDisplay:10.37,2013-08-11 14:11:00,
2013-08-11 10:16:00,68.7,67.2,30.18,NNE,22,0.0,0.0,95,0.00,CLR,,0.00,WeatherDisplay:10.37,2013-08-11 14:16:00,
2013-08-11 10:22:00,68.7,67.2,30.19,NNE,22,0.0,0.0,95,0.00,CLR,,0.00,WeatherDisplay:10.37,2013-08-11 14:22:00,
2013-08-11 10:27:00,68.7,67.2,30.19,NNE,22,0.0,0.0,95,0.00,CLR,,0.00,WeatherDisplay:10.37,2013-08-11 14:27:00,
2013-08-11 10:34:00,68.7,67.2,30.19,NNE,22,0.0,0.0,95,0.00,CLR,,0.00,WeatherDisplay:10.37,2013-08-11 14:34:00,
2013-08-11 10:39:00,68.7,67.2,30.19,NNE,22,0.0,0.0,95,0.00,CLR,,0.00,WeatherDisplay:10.37,2013-08-11 14:39:00,
2013-08-11 10:45:00,68.7,67.2,30.19,NNE,22,0.0,0.0,95,0.00,CLR,,0.00,WeatherDisplay:10.37,2013-08-11 14:45:00,
2013-08-11 10:50:00,68.7,67.2,30.19,NNE,22,0.0,0.0,95,0.00,CLR,,0.00,WeatherDisplay:10.37,2013-08-11 14:50:00,
2013-08-11 10:55:00,68.7,67.2,30.19,NNE,22,0.0,0.0,95,0.00,CLR,,0.00,WeatherDisplay:10.37,2013-08-11 14:55:00,
2013-08-11 11:00:00,68.7,67.2,30.19,NNE,22,0.0,0.0,95,0.00,CLR,,0.00,WeatherDisplay:10.37,2013-08-11 15:00:00,
2013-08-11 11:05:00,68.5,66.7,30.19,NNE,22,0.0,0.0,94,0.00,CLR,,0.00,WeatherDisplay:10.37,2013-08-11 15:05:00,
2013-08-11 11:10:00,68.7,67.2,30.19,NNE,22,0.0,0.0,95,0.00,CLR,,0.00,WeatherDisplay:10.37,2013-08-11 15:10:00,
2013-08-11 11:16:00,68.7,67.2,30.19,NNE,22,0.0,0.0,95,0.00,CLR,,0.00,WeatherDisplay:10.37,2013-08-11 15:16:00,
2013-08-11 11:21:00,68.7,67.2,30.19,NNE,22,0.0,0.0,95,0.00,CLR,,0.00,WeatherDisplay:10.37,2013-08-11 15:21:00,
2013-08-11 11:26:00,68.7,67.2,30.19,NNE,22,0.0,0.0,95,0.00,CLR,,0.00,WeatherDisplay:10.37,2013-08-11 15:26:00,
2013-08-11 11:31:00,69.1,67.6,30.18,NNE,22,0.0,0.0,95,0.00,CLR,,0.00,WeatherDisplay:10.37,2013-08-11 15:31:00,
2013-08-11 11:36:00,69.1,67.6,30.18,NNE,22,0.0,0.0,95,0.00,CLR,,0.00,WeatherDisplay:10.37,2013-08-11 15:36:00,
2013-08-11 11:41:00,69.1,67.6,30.18,NNE,22,0.0,0.0,95,0.00,CLR,,0.00,WeatherDisplay:10.37,2013-08-11 15:41:00,
2013-08-11 11:46:00,69.1,67.6,30.18,NNE,22,0.0,0.0,95,0.00,CLR,,0.00,WeatherDisplay:10.37,2013-08-11 15:46:00,
2013-08-11 11:51:00,69.3,67.8,30.18,NNE,22,0.0,0.0,95,0.00,CLR,,0.00,WeatherDisplay:10.37,2013-08-11 15:51:00,
2013-08-11 11:56:00,69.3,67.8,30.18,NNE,22,0.0,0.0,95,0.00,CLR,,0.00,WeatherDisplay:10.37,2013-08-11 15:56:00,
2013-08-11 12:01:00,69.8,68.3,30.18,NNE,22,0.0,0.0,95,0.00,CLR,,0.00,WeatherDisplay:10.37,2013-08-11 16:01:00,
2013-08-11 12:07:00,70.0,68.5,30.18,NNE,22,0.0,0.0,95,0.00,CLR,,0.00,WeatherDisplay:10.37,2013-08-11 16:07:00,
2013-08-11 12:12:00,70.3,68.8,30.18,NNE,22,0.0,0.0,95,0.00,CLR,,0.00,WeatherDisplay:10.37,2013-08-11 16:12:00,
2013-08-11 12:17:00,70.3,68.8,30.17,NNE,22,0.0,0.0,95,0.00,CLR,,0.00,WeatherDisplay:10.37,2013-08-11 16:17:00,
2013-08-11 12:23:00,70.7,68.9,30.18,NNE,22,0.0,0.0,94,0.00,CLR,,0.00,WeatherDisplay:10.37,2013-08-11 16:23:00,
2013-08-11 12:28:00,71.2,69.4,30.17,NNE,22,0.0,0.0,94,0.00,CLR,,0.00,WeatherDisplay:10.37,2013-08-11 16:28:00,
2013-08-11 12:34:00,71.4,69.6,30.17,NNE,22,0.0,0.0,94,0.00,CLR,,0.00,WeatherDisplay:10.37,2013-08-11 16:34:00,
2013-08-11 12:39:00,71.4,69.3,30.17,NNE,22,0.0,0.0,93,0.00,CLR,,0.00,WeatherDisplay:10.37,2013-08-11 16:39:00,
2013-08-11 12:44:00,72.0,69.8,30.16,NNE,22,0.0,0.0,93,0.00,CLR,,0.00,WeatherDisplay:10.37,2013-08-11 16:44:00,
2013-08-11 12:49:00,72.1,69.7,30.16,NNE,22,0.0,0.0,92,0.00,CLR,,0.00,WeatherDisplay:10.37,2013-08-11 16:49:00,
2013-08-11 12:55:00,72.5,69.7,30.17,NNE,22,0.0,0.0,91,0.00,CLR,,0.00,WeatherDisplay:10.37,2013-08-11 16:55:00,
2013-08-11 13:00:00,72.5,69.7,30.16,NNE,22,0.0,0.0,91,0.00,CLR,,0.00,WeatherDisplay:10.37,2013-08-11 17:00:00,
2013-08-11 13:05:00,73.0,70.3,30.16,NNE,22,0.0,0.0,91,0.00,CLR,,0.00,WeatherDisplay:10.37,2013-08-11 17:05:00,
2013-08-11 13:11:00,73.2,70.1,30.16,NNE,22,0.0,0.0,90,0.00,CLR,,0.00,WeatherDisplay:10.37,2013-08-11 17:11:00,
2013-08-11 13:16:00,74.1,70.7,30.16,NNE,22,0.0,0.0,89,0.00,CLR,,0.00,WeatherDisplay:10.37,2013-08-11 17:16:00,
2013-08-11 13:21:00,74.5,70.4,30.16,NNE,22,0.0,0.0,87,0.00,CLR,,0.00,WeatherDisplay:10.37,2013-08-11 17:21:00,
2013-08-11 13:26:00,74.5,70.0,30.16,NNE,22,0.0,0.0,86,0.00,CLR,,0.00,WeatherDisplay:10.37,2013-08-11 17:26:00,
2013-08-11 13:31:00,74.8,70.4,30.16,NNE,22,0.0,0.0,86,0.00,CLR,,0.00,WeatherDisplay:10.37,2013-08-11 17:31:00,
2013-08-11 13:36:00,75.0,70.2,30.16,NNE,22,0.0,0.0,85,0.00,CLR,,0.00,WeatherDisplay:10.37,2013-08-11 17:36:00,
2013-08-11 13:42:00,76.1,71.6,30.16,NNE,22,0.0,0.0,86,0.00,CLR,,0.00,WeatherDisplay:10.37,2013-08-11 17:42:00,
2013-08-11 13:47:00,76.6,72.1,30.15,NNE,22,0.0,0.0,86,0.00,CLR,,0.00,WeatherDisplay:10.37,2013-08-11 17:47:00,
2013-08-11 13:52:00,76.8,71.6,30.16,NNE,22,0.0,0.0,84,0.00,CLR,,0.00,WeatherDisplay:10.37,2013-08-11 17:52:00,
2013-08-11 13:58:00,77.2,71.6,30.16,NNE,22,0.0,0.0,83,0.00,CLR,,0.00,WeatherDisplay:10.37,2013-08-11 17:58:00,
2013-08-11 14:03:00,77.0,71.1,30.16,NNE,22,0.0,0.0,82,0.00,CLR,,0.00,WeatherDisplay:10.37,2013-08-11 18:03:00,
2013-08-11 14:08:00,77.4,70.7,30.15,NNE,22,0.0,0.0,80,0.00,CLR,,0.00,WeatherDisplay:10.37,2013-08-11 18:08:00,
2013-08-11 14:14:00,77.7,71.1,30.15,NNE,22,0.0,0.0,80,0.00,CLR,,0.00,WeatherDisplay:10.37,2013-08-11 18:14:00,
2013-08-11 14:19:00,78.1,71.0,30.15,NNE,22,0.0,0.0,79,0.00,CLR,,0.00,WeatherDisplay:10.37,2013-08-11 18:19:00,
2013-08-11 14:24:00,77.9,70.5,30.14,NNE,22,0.0,0.0,78,0.00,CLR,,0.00,WeatherDisplay:10.37,2013-08-11 18:24:00,
2013-08-11 14:30:00,78.1,71.0,30.14,NNE,22,0.0,0.0,79,0.00,CLR,,0.00,WeatherDisplay:10.37,2013-08-11 18:30:00,
2013-08-11 14:35:00,78.4,70.2,30.14,NNE,22,0.0,0.0,76,0.00,CLR,,0.00,WeatherDisplay:10.37,2013-08-11 18:35:00,
2013-08-11 14:40:00,78.4,70.6,30.14,NNE,22,0.0,0.0,77,0.00,CLR,,0.00,WeatherDisplay:10.37,2013-08-11 18:40:00,
2013-08-11 14:45:00,78.4,70.6,30.14,NNE,22,0.0,0.0,77,0.00,CLR,,0.00,WeatherDisplay:10.37,2013-08-11 18:45:00,
2013-08-11 14:50:00,78.6,70.8,30.14,NNE,22,0.0,0.0,77,0.00,CLR,,0.00,WeatherDisplay:10.37,2013-08-11 18:50:00,
2013-08-11 14:55:00,78.6,70.8,30.13,NNE,22,0.0,0.0,77,0.00,CLR,,0.00,WeatherDisplay:10.37,2013-08-11 18:55:00,
2013-08-11 15:00:00,78.6,70.4,30.13,NNE,22,0.0,0.0,76,0.00,CLR,,0.00,WeatherDisplay:10.37,2013-08-11 19:00:00,
2013-08-11 15:05:00,79.0,70.8,30.14,NNE,22,0.0,0.0,76,0.00,CLR,,0.00,WeatherDisplay:10.37,2013-08-11 19:05:00,
2013-08-11 15:10:00,79.3,71.5,30.14,NNE,22,0.0,0.0,77,0.00,CLR,,0.00,WeatherDisplay:10.37,2013-08-11 19:10:00,
2013-08-11 15:15:00,79.5,71.7,30.13,NNE,22,0.0,0.0,77,0.00,CLR,,0.00,WeatherDisplay:10.37,2013-08-11 19:15:00,
2013-08-11 15:20:00,80.1,71.0,30.13,NNE,22,0.0,0.0,74,0.00,CLR,,0.00,WeatherDisplay:10.37,2013-08-11 19:20:00,
2013-08-11 15:25:00,80.4,71.0,30.13,NNE,22,0.0,0.0,73,0.00,CLR,,0.00,WeatherDisplay:10.37,2013-08-11 19:25:00,
2013-08-11 15:30:00,80.4,71.0,30.13,NNE,22,0.0,0.0,73,0.00,CLR,,0.00,WeatherDisplay:10.37,2013-08-11 19:30:00,
2013-08-11 15:36:00,80.2,70.8,30.13,NNE,22,0.0,0.0,73,0.00,CLR,,0.00,WeatherDisplay:10.37,2013-08-11 19:36:00,
2013-08-11 15:42:00,80.2,70.4,30.12,NNE,22,0.0,0.0,72,0.00,CLR,,0.00,WeatherDisplay:10.37,2013-08-11 19:42:00,
2013-08-11 15:47:00,80.1,70.6,30.12,NNE,22,0.0,0.0,73,0.00,CLR,,0.00,WeatherDisplay:10.37,2013-08-11 19:47:00,
2013-08-11 15:52:00,80.1,71.0,30.12,NNE,22,0.0,0.0,74,0.00,CLR,,0.00,WeatherDisplay:10.37,2013-08-11 19:52:00,
2013-08-11 15:57:00,79.7,70.7,30.12,NNE,22,0.0,0.0,74,0.00,CLR,,0.00,WeatherDisplay:10.37,2013-08-11 19:57:00,
2013-08-11 16:03:00,79.3,69.9,30.12,NNE,22,0.0,0.0,73,0.00,CLR,,0.00,WeatherDisplay:10.37,2013-08-11 20:03:00,
2013-08-11 16:08:00,78.6,69.2,30.12,NNE,22,0.0,0.0,73,0.00,CLR,,0.00,WeatherDisplay:10.37,2013-08-11 20:08:00,
2013-08-11 16:14:00,77.7,69.5,30.12,NNE,22,0.0,0.0,76,0.00,CLR,,0.00,WeatherDisplay:10.37,2013-08-11 20:14:00,
2013-08-11 16:19:00,77.5,69.4,30.12,NNE,22,0.0,0.0,76,0.00,CLR,,0.00,WeatherDisplay:10.37,2013-08-11 20:19:00,
2013-08-11 16:25:00,76.8,69.1,30.12,NNE,22,0.0,0.0,77,0.00,CLR,,0.00,WeatherDisplay:10.37,2013-08-11 20:25:00,
2013-08-11 16:30:00,76.3,69.3,30.13,NNE,22,0.0,0.0,79,0.00,CLR,,0.00,WeatherDisplay:10.37,2013-08-11 20:30:00,
2013-08-11 16:35:00,75.7,69.1,30.13,NNE,22,0.0,0.0,80,0.00,CLR,,0.00,WeatherDisplay:10.37,2013-08-11 20:35:00,
2013-08-11 16:40:00,74.8,68.6,30.12,NNE,22,0.0,0.0,81,0.00,CLR,,0.00,WeatherDisplay:10.37,2013-08-11 20:40:00,
2013-08-11 16:45:00,74.3,68.8,30.12,NNE,22,0.0,0.0,83,0.00,CLR,,0.00,WeatherDisplay:10.37,2013-08-11 20:45:00,
2013-08-11 16:50:00,73.9,68.4,30.13,NNE,22,0.0,0.0,83,0.00,CLR,,0.00,WeatherDisplay:10.37,2013-08-11 20:50:00,
2013-08-11 16:55:00,73.8,68.6,30.12,NNE,22,0.0,0.0,84,0.00,CLR,,0.00,WeatherDisplay:10.37,2013-08-11 20:55:00,
2013-08-11 17:00:00,73.8,69.0,30.12,NNE,22,0.0,0.0,85,0.00,CLR,,0.00,WeatherDisplay:10.37,2013-08-11 21:00:00,
2013-08-11 17:05:00,73.9,69.5,30.12,NNE,22,0.0,0.0,86,0.00,CLR,,0.00,WeatherDisplay:10.37,2013-08-11 21:05:00,
2013-08-11 17:11:00,74.3,70.2,30.13,NNE,22,0.0,0.0,87,0.00,CLR,,0.00,WeatherDisplay:10.37,2013-08-11 21:11:00,
2013-08-11 17:16:00,74.8,70.7,30.13,NNE,22,0.0,0.0,87,0.00,CLR,,0.00,WeatherDisplay:10.37,2013-08-11 21:16:00,
2013-08-11 17:21:00,74.5,70.0,30.13,NNE,22,0.0,0.0,86,0.00,CLR,,0.00,WeatherDisplay:10.37,2013-08-11 21:21:00,
2013-08-11 17:26:00,74.3,69.8,30.13,NNE,22,0.0,0.0,86,0.00,CLR,,0.00,WeatherDisplay:10.37,2013-08-11 21:26:00,
2013-08-11 17:32:00,74.3,70.2,30.13,NNE,22,0.0,0.0,87,0.00,CLR,,0.00,WeatherDisplay:10.37,2013-08-11 21:32:00,
2013-08-11 17:37:00,74.3,70.2,30.13,NNE,22,0.0,0.0,87,0.00,CLR,,0.00,WeatherDisplay:10.37,2013-08-11 21:37:00,
2013-08-11 17:42:00,74.1,70.0,30.13,NNE,22,0.0,0.0,87,0.00,CLR,,0.00,WeatherDisplay:10.37,2013-08-11 21:42:00,
2013-08-11 17:48:00,74.5,70.4,30.13,NNE,22,0.0,0.0,87,0.00,CLR,,0.00,WeatherDisplay:10.37,2013-08-11 21:48:00,
2013-08-11 17:53:00,75.0,70.9,30.12,NNE,22,0.0,0.0,87,0.00,CLR,,0.00,WeatherDisplay:10.37,2013-08-11 21:53:00,
2013-08-11 17:58:00,75.4,71.6,30.12,NNE,22,0.0,0.0,88,0.00,CLR,,0.00,WeatherDisplay:10.37,2013-08-11 21:58:00,
2013-08-11 18:03:00,75.7,71.3,30.12,NNE,22,0.0,0.0,86,0.00,CLR,,0.00,WeatherDisplay:10.37,2013-08-11 22:03:00,
2013-08-11 18:08:00,75.7,71.3,30.12,NNE,22,0.0,0.0,86,0.00,CLR,,0.00,WeatherDisplay:10.37,2013-08-11 22:08:00,
2013-08-11 18:13:00,75.4,70.9,30.12,NNE,22,0.0,0.0,86,0.00,CLR,,0.00,WeatherDisplay:10.37,2013-08-11 22:13:00,
2013-08-11 18:18:00,75.0,70.5,30.12,NNE,22,0.0,0.0,86,0.00,CLR,,0.00,WeatherDisplay:10.37,2013-08-11 22:18:00,
2013-08-11 18:24:00,75.0,70.5,30.12,NNE,22,0.0,0.0,86,0.00,CLR,,0.00,WeatherDisplay:10.37,2013-08-11 22:24:00,
2013-08-11 18:29:00,74.8,70.4,30.12,NNE,22,0.0,0.0,86,0.00,CLR,,0.00,WeatherDisplay:10.37,2013-08-11 22:29:00,
2013-08-11 18:34:00,74.5,70.0,30.11,NNE,22,0.0,0.0,86,0.00,CLR,,0.00,WeatherDisplay:10.37,2013-08-11 22:34:00,
2013-08-11 18:39:00,74.5,70.0,30.11,NNE,22,0.0,0.0,86,0.00,CLR,,0.00,WeatherDisplay:10.37,2013-08-11 22:39:00,
2013-08-11 18:44:00,74.1,70.0,30.12,NNE,22,0.0,0.0,87,0.00,CLR,,0.00,WeatherDisplay:10.37,2013-08-11 22:44:00,
2013-08-11 18:49:00,73.9,69.8,30.12,NNE,22,0.0,0.0,87,0.00,CLR,,0.00,WeatherDisplay:10.37,2013-08-11 22:49:00,
2013-08-11 18:55:00,73.8,69.7,30.12,NNE,22,0.0,0.0,87,0.00,CLR,,0.00,WeatherDisplay:10.37,2013-08-11 22:55:00,
2013-08-11 19:00:00,73.6,69.5,30.12,NNE,22,0.0,0.0,87,0.00,CLR,,0.00,WeatherDisplay:10.37,2013-08-11 23:00:00,
2013-08-11 19:05:00,73.2,69.5,30.12,NNE,22,0.0,0.0,88,0.00,CLR,,0.00,WeatherDisplay:10.37,2013-08-11 23:05:00,
2013-08-11 19:10:00,73.2,69.5,30.12,NNE,22,0.0,0.0,88,0.00,CLR,,0.00,WeatherDisplay:10.37,2013-08-11 23:10:00,
2013-08-11 19:15:00,73.0,69.3,30.12,NNE,22,0.0,0.0,88,0.00,CLR,,0.00,WeatherDisplay:10.37,2013-08-11 23:15:00,
2013-08-11 19:20:00,73.0,69.6,30.12,NNE,22,0.0,0.0,89,0.00,CLR,,0.00,WeatherDisplay:10.37,2013-08-11 23:20:00,
2013-08-11 19:26:00,72.7,69.2,30.12,NNE,22,0.0,0.0,89,0.00,CLR,,0.00,WeatherDisplay:10.37,2013-08-11 23:26:00,
2013-08-11 19:31:00,72.5,69.4,30.12,NNE,22,0.0,0.0,90,0.00,CLR,,0.00,WeatherDisplay:10.37,2013-08-11 23:31:00,
2013-08-11 19:36:00,72.3,69.2,30.13,NNE,22,0.0,0.0,90,0.00,CLR,,0.00,WeatherDisplay:10.37,2013-08-11 23:36:00,
2013-08-11 19:42:00,72.3,69.2,30.13,NNE,22,0.0,0.0,90,0.00,CLR,,0.00,WeatherDisplay:10.37,2013-08-11 23:42:00,
2013-08-11 19:47:00,72.1,69.0,30.13,NNE,22,0.0,0.0,90,0.00,CLR,,0.00,WeatherDisplay:10.37,2013-08-11 23:47:00,
2013-08-11 19:52:00,72.0,69.2,30.13,NNE,22,0.0,0.0,91,0.00,CLR,,0.00,WeatherDisplay:10.37,2013-08-11 23:52:00,
2013-08-11 19:57:00,71.8,69.0,30.13,NNE,22,0.0,0.0,91,0.00,CLR,,0.00,WeatherDisplay:10.37,2013-08-11 23:57:00,
2013-08-11 20:03:00,71.8,69.0,30.13,NNE,22,0.0,0.0,91,0.00,CLR,,0.00,WeatherDisplay:10.37,2013-08-12 00:03:00,
2013-08-11 20:08:00,71.4,68.7,30.13,NNE,22,0.0,0.0,91,0.00,CLR,,0.00,WeatherDisplay:10.37,2013-08-12 00:08:00,
2013-08-11 20:14:00,71.4,68.7,30.14,NNE,22,0.0,0.0,91,0.00,CLR,,0.00,WeatherDisplay:10.37,2013-08-12 00:14:00,
2013-08-11 20:19:00,71.4,68.7,30.14,NNE,22,0.0,0.0,91,0.00,CLR,,0.00,WeatherDisplay:10.37,2013-08-12 00:19:00,
2013-08-11 20:24:00,71.4,69.0,30.13,NNE,22,0.0,0.0,92,0.00,CLR,,0.00,WeatherDisplay:10.37,2013-08-12 00:24:00,
2013-08-11 20:29:00,71.4,69.0,30.13,NNE,22,0.0,0.0,92,0.00,CLR,,0.00,WeatherDisplay:10.37,2013-08-12 00:29:00,
2013-08-11 20:35:00,71.2,68.8,30.14,NNE,22,0.0,0.0,92,0.00,CLR,,0.00,WeatherDisplay:10.37,2013-08-12 00:35:00,
2013-08-11 20:40:00,71.2,68.8,30.14,NNE,22,0.0,0.0,92,0.00,CLR,,0.00,WeatherDisplay:10.37,2013-08-12 00:40:00,
2013-08-11 20:45:00,71.2,68.8,30.14,NNE,22,0.0,0.0,92,0.00,CLR,,0.00,WeatherDisplay:10.37,2013-08-12 00:45:00,
2013-08-11 20:50:00,70.9,68.4,30.14,NNE,22,0.0,0.0,92,0.00,CLR,,0.00,WeatherDisplay:10.37,2013-08-12 00:50:00,
2013-08-11 20:55:00,70.9,68.4,30.14,NNE,22,0.0,0.0,92,0.00,CLR,,0.00,WeatherDisplay:10.37,2013-08-12 00:55:00,
2013-08-11 21:00:00,70.7,68.3,30.14,NNE,22,0.0,0.0,92,0.00,CLR,,0.00,WeatherDisplay:10.37,2013-08-12 01:00:00,
2013-08-11 21:05:00,70.5,68.1,30.14,NNE,22,0.0,0.0,92,0.00,CLR,,0.00,WeatherDisplay:10.37,2013-08-12 01:05:00,
2013-08-11 21:12:00,70.5,68.1,30.14,NNE,22,0.0,0.0,92,0.00,CLR,,0.00,WeatherDisplay:10.37,2013-08-12 01:12:00,
2013-08-11 21:17:00,70.3,67.9,30.14,NNE,22,0.0,0.0,92,0.00,CLR,,0.00,WeatherDisplay:10.37,2013-08-12 01:17:00,
2013-08-11 21:22:00,70.3,67.9,30.14,NNE,22,0.0,0.0,92,0.00,CLR,,0.00,WeatherDisplay:10.37,2013-08-12 01:22:00,
2013-08-11 21:27:00,70.2,68.0,30.14,NNE,22,0.0,0.0,93,0.00,CLR,,0.00,WeatherDisplay:10.37,2013-08-12 01:27:00,
2013-08-11 21:32:00,70.2,68.0,30.15,NNE,22,0.0,0.0,93,0.00,CLR,,0.00,WeatherDisplay:10.37,2013-08-12 01:32:00,
2013-08-11 21:38:00,70.0,67.9,30.15,NNE,22,0.0,0.0,93,0.00,CLR,,0.00,WeatherDisplay:10.37,2013-08-12 01:38:00,
2013-08-11 21:43:00,70.0,67.9,30.15,NNE,22,0.0,0.0,93,0.00,CLR,,0.00,WeatherDisplay:10.37,2013-08-12 01:43:00,
2013-08-11 21:48:00,69.8,67.4,30.15,NNE,22,0.0,0.0,92,0.00,CLR,,0.00,WeatherDisplay:10.37,2013-08-12 01:48:00,
2013-08-11 21:54:00,69.6,67.2,30.16,NNE,22,0.0,0.0,92,0.00,CLR,,0.00,WeatherDisplay:10.37,2013-08-12 01:54:00,
2013-08-11 22:00:00,69.6,67.5,30.15,NNE,22,0.0,0.0,93,0.00,CLR,,0.00,WeatherDisplay:10.37,2013-08-12 02:00:00,
2013-08-11 22:05:00,69.6,67.5,30.15,NNE,22,0.0,0.0,93,0.00,CLR,,0.00,WeatherDisplay:10.37,2013-08-12 02:05:00,
2013-08-11 22:10:00,69.6,67.5,30.15,NNE,22,0.0,0.0,93,0.00,CLR,,0.00,WeatherDisplay:10.37,2013-08-12 02:10:00,
2013-08-11 22:15:00,69.4,67.3,30.15,NNE,22,0.0,0.0,93,0.00,CLR,,0.00,WeatherDisplay:10.37,2013-08-12 02:15:00,
2013-08-11 22:20:00,69.4,67.3,30.14,NNE,22,0.0,0.0,93,0.00,CLR,,0.00,WeatherDisplay:10.37,2013-08-12 02:20:00,
2013-08-11 22:25:00,69.3,67.1,30.14,NNE,22,0.0,0.0,93,0.00,CLR,,0.00,WeatherDisplay:10.37,2013-08-12 02:25:00,
2013-08-11 22:30:00,69.1,67.0,30.14,NNE,22,0.0,0.0,93,0.00,CLR,,0.00,WeatherDisplay:10.37,2013-08-12 02:30:00,
2013-08-11 22:35:00,69.1,67.0,30.14,NNE,22,0.0,0.0,93,0.00,CLR,,0.00,WeatherDisplay:10.37,2013-08-12 02:35:00,
2013-08-11 22:40:00,69.1,67.0,30.14,NNE,22,0.0,0.0,93,0.00,CLR,,0.00,WeatherDisplay:10.37,2013-08-12 02:40:00,
2013-08-11 22:45:00,69.1,67.0,30.14,NNE,22,0.0,0.0,93,0.00,CLR,,0.00,WeatherDisplay:10.37,2013-08-12 02:45:00,
2013-08-11 22:50:00,68.9,66.8,30.14,NNE,22,0.0,0.0,93,0.00,CLR,,0.00,WeatherDisplay:10.37,2013-08-12 02:50:00,
2013-08-11 22:55:00,68.9,66.8,30.14,NNE,22,0.0,0.0,93,0.00,CLR,,0.00,WeatherDisplay:10.37,2013-08-12 02:55:00,
2013-08-11 23:00:00,68.9,66.8,30.14,NNE,22,0.0,0.0,93,0.00,CLR,,0.00,WeatherDisplay:10.37,2013-08-12 03:00:00,
2013-08-11 23:05:00,68.9,66.8,30.14,NNE,22,0.0,0.0,93,0.00,CLR,,0.00,WeatherDisplay:10.37,2013-08-12 03:05:00,
2013-08-11 23:11:00,68.7,66.6,30.14,NNE,22,0.0,0.0,93,0.00,CLR,,0.00,WeatherDisplay:10.37,2013-08-12 03:11:00,
2013-08-11 23:16:00,68.7,66.6,30.14,NNE,22,0.0,0.0,93,0.00,CLR,,0.00,WeatherDisplay:10.37,2013-08-12 03:16:00,
2013-08-11 23:21:00,68.7,66.6,30.14,NNE,22,0.0,0.0,93,0.00,CLR,,0.00,WeatherDisplay:10.37,2013-08-12 03:21:00,
2013-08-11 23:26:00,68.7,66.6,30.14,NNE,22,0.0,0.0,93,0.00,CLR,,0.00,WeatherDisplay:10.37,2013-08-12 03:26:00,
2013-08-11 23:31:00,68.7,66.6,30.14,NNE,22,0.0,0.0,93,0.00,CLR,,0.00,WeatherDisplay:10.37,2013-08-12 03:31:00,
2013-08-11 23:36:00,68.7,66.9,30.14,NNE,22,0.0,0.0,94,0.00,CLR,,0.00,WeatherDisplay:10.37,2013-08-12 03:36:00,
2013-08-11 23:41:00,68.5,66.7,30.14,NNE,22,0.0,0.0,94,0.00,CLR,,0.00,WeatherDisplay:10.37,2013-08-12 03:41:00,
2013-08-11 23:47:00,68.5,66.7,30.14,NNE,22,0.0,0.0,94,0.00,CLR,,0.00,WeatherDisplay:10.37,2013-08-12 03:47:00,
2013-08-11 23:52:00,68.5,66.7,30.14,NNE,22,0.0,0.0,94,0.00,CLR,,0.00,WeatherDisplay:10.37,2013-08-12 03:52:00,
2013-08-11 23:57:00,68.5,66.7,30.14,NNE,22,0.0,0.0,94,0.00,CLR,,0.00,WeatherDisplay:10.37,2013-08-12 03:57:00,